sensor_id;sensor_type;location;lat;lon;timestamp;P1;durP1;ratioP1;P2;durP2;ratioP2
73563;SDS011;61834;50.196;6.454;2023-03-11T00:00:08;13.88;;;1.40;;
73563;SDS011;61834;50.196;6.454;2023-03-11T00:02:40;5.03;;;1.10;;
73563;SDS011;61834;50.196;6.454;2023-03-11T00:05:06;13.43;;;2.75;;
73563;SDS011;61834;50.196;6.454;2023-03-11T00:07:32;6.95;;;1.10;;
73563;SDS011;61834;50.196;6.454;2023-03-11T00:09:57;5.82;;;1.17;;
73563;SDS011;61834;50.196;6.454;2023-03-11T00:12:23;16.33;;;1.40;;
73563;SDS011;61834;50.196;6.454;2023-03-11T00:14:49;7.60;;;1.60;;
73563;SDS011;61834;50.196;6.454;2023-03-11T00:17:14;5.78;;;1.35;;
73563;SDS011;61834;50.196;6.454;2023-03-11T00:19:40;4.97;;;1.27;;
73563;SDS011;61834;50.196;6.454;2023-03-11T00:22:05;8.18;;;1.70;;
73563;SDS011;61834;50.196;6.454;2023-03-11T00:24:31;10.38;;;1.38;;
73563;SDS011;61834;50.196;6.454;2023-03-11T00:26:56;8.68;;;1.65;;
73563;SDS011;61834;50.196;6.454;2023-03-11T00:29:22;13.90;;;1.77;;
73563;SDS011;61834;50.196;6.454;2023-03-11T00:31:48;4.80;;;1.42;;
73563;SDS011;61834;50.196;6.454;2023-03-11T00:34:13;5.25;;;1.45;;
73563;SDS011;61834;50.196;6.454;2023-03-11T00:36:38;5.80;;;1.10;;
73563;SDS011;61834;50.196;6.454;2023-03-11T00:39:04;11.55;;;1.80;;
73563;SDS011;61834;50.196;6.454;2023-03-11T00:41:31;7.07;;;2.05;;
73563;SDS011;61834;50.196;6.454;2023-03-11T00:43:57;9.68;;;1.50;;
73563;SDS011;61834;50.196;6.454;2023-03-11T00:46:23;11.75;;;1.60;;
73563;SDS011;61834;50.196;6.454;2023-03-11T00:48:51;8.60;;;1.90;;
73563;SDS011;61834;50.196;6.454;2023-03-11T00:51:17;8.73;;;1.55;;
73563;SDS011;61834;50.196;6.454;2023-03-11T00:53:43;10.13;;;1.30;;
73563;SDS011;61834;50.196;6.454;2023-03-11T00:56:12;6.57;;;1.30;;
73563;SDS011;61834;50.196;6.454;2023-03-11T00:58:39;9.65;;;1.40;;
73563;SDS011;61834;50.196;6.454;2023-03-11T01:01:09;3.95;;;1.10;;
73563;SDS011;61834;50.196;6.454;2023-03-11T01:03:36;10.52;;;1.27;;
73563;SDS011;61834;50.196;6.454;2023-03-11T01:06:03;14.40;;;1.48;;
73563;SDS011;61834;50.196;6.454;2023-03-11T01:08:29;5.85;;;1.83;;
73563;SDS011;61834;50.196;6.454;2023-03-11T01:10:55;7.32;;;1.38;;
73563;SDS011;61834;50.196;6.454;2023-03-11T01:13:22;7.03;;;1.65;;
73563;SDS011;61834;50.196;6.454;2023-03-11T01:15:48;13.70;;;1.73;;
73563;SDS011;61834;50.196;6.454;2023-03-11T01:18:13;9.57;;;2.30;;
73563;SDS011;61834;50.196;6.454;2023-03-11T01:20:39;9.90;;;1.70;;
73563;SDS011;61834;50.196;6.454;2023-03-11T01:23:05;6.95;;;1.58;;
73563;SDS011;61834;50.196;6.454;2023-03-11T01:25:31;8.68;;;2.80;;
73563;SDS011;61834;50.196;6.454;2023-03-11T01:27:57;6.35;;;1.50;;
73563;SDS011;61834;50.196;6.454;2023-03-11T01:30:23;9.50;;;1.92;;
73563;SDS011;61834;50.196;6.454;2023-03-11T01:32:50;7.50;;;1.63;;
73563;SDS011;61834;50.196;6.454;2023-03-11T01:35:18;8.18;;;2.53;;
73563;SDS011;61834;50.196;6.454;2023-03-11T01:37:45;7.82;;;1.92;;
73563;SDS011;61834;50.196;6.454;2023-03-11T01:40:13;11.88;;;1.83;;
73563;SDS011;61834;50.196;6.454;2023-03-11T01:42:43;9.40;;;2.05;;
73563;SDS011;61834;50.196;6.454;2023-03-11T01:45:25;11.68;;;1.65;;
73563;SDS011;61834;50.196;6.454;2023-03-11T01:47:57;7.32;;;1.95;;
73563;SDS011;61834;50.196;6.454;2023-03-11T01:50:23;11.88;;;2.50;;
73563;SDS011;61834;50.196;6.454;2023-03-11T01:52:51;9.50;;;2.35;;
73563;SDS011;61834;50.196;6.454;2023-03-11T01:55:17;10.07;;;2.60;;
73563;SDS011;61834;50.196;6.454;2023-03-11T01:57:43;10.77;;;2.33;;
73563;SDS011;61834;50.196;6.454;2023-03-11T02:00:12;9.63;;;2.65;;
73563;SDS011;61834;50.196;6.454;2023-03-11T02:02:44;17.42;;;2.42;;
73563;SDS011;61834;50.196;6.454;2023-03-11T02:05:15;6.78;;;2.42;;
73563;SDS011;61834;50.196;6.454;2023-03-11T02:07:42;9.35;;;2.47;;
73563;SDS011;61834;50.196;6.454;2023-03-11T02:10:11;6.75;;;2.28;;
73563;SDS011;61834;50.196;6.454;2023-03-11T02:12:38;8.55;;;3.08;;
73563;SDS011;61834;50.196;6.454;2023-03-11T02:15:04;11.55;;;3.75;;
73563;SDS011;61834;50.196;6.454;2023-03-11T02:17:33;13.23;;;3.45;;
73563;SDS011;61834;50.196;6.454;2023-03-11T02:22:26;7.45;;;2.80;;
73563;SDS011;61834;50.196;6.454;2023-03-11T02:24:56;10.40;;;3.30;;
73563;SDS011;61834;50.196;6.454;2023-03-11T02:27:30;8.75;;;2.75;;
73563;SDS011;61834;50.196;6.454;2023-03-11T02:29:58;8.80;;;2.70;;
73563;SDS011;61834;50.196;6.454;2023-03-11T02:32:25;15.55;;;3.17;;
73563;SDS011;61834;50.196;6.454;2023-03-11T02:34:51;8.07;;;3.25;;
73563;SDS011;61834;50.196;6.454;2023-03-11T02:37:17;10.57;;;3.53;;
73563;SDS011;61834;50.196;6.454;2023-03-11T02:39:53;7.72;;;3.35;;
73563;SDS011;61834;50.196;6.454;2023-03-11T02:42:26;9.35;;;3.90;;
73563;SDS011;61834;50.196;6.454;2023-03-11T02:45:04;6.65;;;3.53;;
73563;SDS011;61834;50.196;6.454;2023-03-11T02:47:34;12.00;;;3.75;;
73563;SDS011;61834;50.196;6.454;2023-03-11T02:50:04;12.57;;;3.20;;
73563;SDS011;61834;50.196;6.454;2023-03-11T02:52:32;9.18;;;3.38;;
73563;SDS011;61834;50.196;6.454;2023-03-11T02:54:59;10.30;;;3.25;;
73563;SDS011;61834;50.196;6.454;2023-03-11T02:57:24;11.90;;;3.70;;
73563;SDS011;61834;50.196;6.454;2023-03-11T02:59:49;11.25;;;3.70;;
73563;SDS011;61834;50.196;6.454;2023-03-11T03:02:15;8.05;;;3.05;;
73563;SDS011;61834;50.196;6.454;2023-03-11T03:04:41;17.02;;;3.97;;
73563;SDS011;61834;50.196;6.454;2023-03-11T03:07:07;9.50;;;3.25;;
73563;SDS011;61834;50.196;6.454;2023-03-11T03:09:33;14.25;;;3.55;;
73563;SDS011;61834;50.196;6.454;2023-03-11T03:11:59;14.15;;;4.43;;
73563;SDS011;61834;50.196;6.454;2023-03-11T03:14:27;13.95;;;4.65;;
73563;SDS011;61834;50.196;6.454;2023-03-11T03:16:52;14.32;;;4.63;;
73563;SDS011;61834;50.196;6.454;2023-03-11T03:19:18;13.30;;;4.45;;
73563;SDS011;61834;50.196;6.454;2023-03-11T03:21:44;8.43;;;3.30;;
73563;SDS011;61834;50.196;6.454;2023-03-11T03:24:10;17.00;;;4.10;;
73563;SDS011;61834;50.196;6.454;2023-03-11T03:26:36;10.88;;;3.85;;
73563;SDS011;61834;50.196;6.454;2023-03-11T03:29:03;14.93;;;4.30;;
73563;SDS011;61834;50.196;6.454;2023-03-11T03:31:30;9.88;;;4.57;;
73563;SDS011;61834;50.196;6.454;2023-03-11T03:33:56;15.80;;;5.35;;
73563;SDS011;61834;50.196;6.454;2023-03-11T03:36:22;8.98;;;4.90;;
73563;SDS011;61834;50.196;6.454;2023-03-11T03:38:53;22.63;;;5.95;;
73563;SDS011;61834;50.196;6.454;2023-03-11T03:41:20;14.70;;;4.95;;
73563;SDS011;61834;50.196;6.454;2023-03-11T03:43:46;10.38;;;5.05;;
73563;SDS011;61834;50.196;6.454;2023-03-11T03:46:11;17.80;;;6.03;;
73563;SDS011;61834;50.196;6.454;2023-03-11T03:48:41;12.40;;;6.10;;
73563;SDS011;61834;50.196;6.454;2023-03-11T03:51:08;12.45;;;6.60;;
73563;SDS011;61834;50.196;6.454;2023-03-11T03:53:40;14.73;;;6.53;;
73563;SDS011;61834;50.196;6.454;2023-03-11T03:56:10;14.32;;;6.38;;
73563;SDS011;61834;50.196;6.454;2023-03-11T03:58:38;17.58;;;6.60;;
73563;SDS011;61834;50.196;6.454;2023-03-11T04:01:04;11.15;;;6.40;;
73563;SDS011;61834;50.196;6.454;2023-03-11T04:03:32;16.30;;;6.38;;
73563;SDS011;61834;50.196;6.454;2023-03-11T04:06:13;15.85;;;6.15;;
73563;SDS011;61834;50.196;6.454;2023-03-11T04:08:42;14.85;;;6.13;;
73563;SDS011;61834;50.196;6.454;2023-03-11T04:11:09;12.32;;;6.05;;
73563;SDS011;61834;50.196;6.454;2023-03-11T04:13:35;17.67;;;6.45;;
73563;SDS011;61834;50.196;6.454;2023-03-11T04:16:02;16.33;;;6.38;;
73563;SDS011;61834;50.196;6.454;2023-03-11T04:18:29;16.10;;;6.07;;
73563;SDS011;61834;50.196;6.454;2023-03-11T04:20:54;14.70;;;6.47;;
73563;SDS011;61834;50.196;6.454;2023-03-11T04:23:20;12.32;;;6.22;;
73563;SDS011;61834;50.196;6.454;2023-03-11T04:25:45;15.50;;;6.63;;
73563;SDS011;61834;50.196;6.454;2023-03-11T04:28:11;13.55;;;6.18;;
73563;SDS011;61834;50.196;6.454;2023-03-11T04:30:37;16.70;;;6.50;;
73563;SDS011;61834;50.196;6.454;2023-03-11T04:33:03;14.27;;;7.05;;
73563;SDS011;61834;50.196;6.454;2023-03-11T04:35:29;12.70;;;6.45;;
73563;SDS011;61834;50.196;6.454;2023-03-11T04:37:55;20.38;;;6.95;;
73563;SDS011;61834;50.196;6.454;2023-03-11T04:40:23;13.90;;;6.43;;
73563;SDS011;61834;50.196;6.454;2023-03-11T04:42:49;24.83;;;6.97;;
73563;SDS011;61834;50.196;6.454;2023-03-11T04:45:14;12.98;;;7.30;;
73563;SDS011;61834;50.196;6.454;2023-03-11T04:47:42;14.85;;;7.22;;
73563;SDS011;61834;50.196;6.454;2023-03-11T04:50:08;14.35;;;6.97;;
73563;SDS011;61834;50.196;6.454;2023-03-11T04:52:34;17.90;;;6.72;;
73563;SDS011;61834;50.196;6.454;2023-03-11T04:54:59;14.93;;;7.45;;
73563;SDS011;61834;50.196;6.454;2023-03-11T04:57:25;13.27;;;6.32;;
73563;SDS011;61834;50.196;6.454;2023-03-11T04:59:50;16.25;;;6.63;;
73563;SDS011;61834;50.196;6.454;2023-03-11T05:02:16;17.05;;;5.95;;
73563;SDS011;61834;50.196;6.454;2023-03-11T05:04:49;12.77;;;6.32;;
73563;SDS011;61834;50.196;6.454;2023-03-11T05:07:15;13.05;;;5.60;;
73563;SDS011;61834;50.196;6.454;2023-03-11T05:09:41;15.80;;;5.47;;
73563;SDS011;61834;50.196;6.454;2023-03-11T05:12:06;20.13;;;5.85;;
73563;SDS011;61834;50.196;6.454;2023-03-11T05:14:35;17.58;;;6.47;;
73563;SDS011;61834;50.196;6.454;2023-03-11T05:17:00;15.90;;;5.63;;
73563;SDS011;61834;50.196;6.454;2023-03-11T05:19:26;17.30;;;6.00;;
73563;SDS011;61834;50.196;6.454;2023-03-11T05:22:21;14.52;;;5.22;;
73563;SDS011;61834;50.196;6.454;2023-03-11T05:24:46;14.02;;;5.82;;
73563;SDS011;61834;50.196;6.454;2023-03-11T05:27:12;18.67;;;5.82;;
73563;SDS011;61834;50.196;6.454;2023-03-11T05:29:44;12.48;;;5.88;;
73563;SDS011;61834;50.196;6.454;2023-03-11T05:32:11;10.90;;;5.70;;
73563;SDS011;61834;50.196;6.454;2023-03-11T05:34:37;20.70;;;6.18;;
73563;SDS011;61834;50.196;6.454;2023-03-11T05:37:05;15.82;;;6.18;;
73563;SDS011;61834;50.196;6.454;2023-03-11T05:39:32;16.38;;;6.55;;
73563;SDS011;61834;50.196;6.454;2023-03-11T05:41:58;19.77;;;6.55;;
73563;SDS011;61834;50.196;6.454;2023-03-11T05:44:25;11.18;;;5.60;;
73563;SDS011;61834;50.196;6.454;2023-03-11T05:46:51;24.98;;;7.70;;
73563;SDS011;61834;50.196;6.454;2023-03-11T05:49:16;18.42;;;5.95;;
73563;SDS011;61834;50.196;6.454;2023-03-11T05:51:42;11.82;;;6.47;;
73563;SDS011;61834;50.196;6.454;2023-03-11T05:54:08;13.93;;;6.25;;
73563;SDS011;61834;50.196;6.454;2023-03-11T05:56:40;17.02;;;6.22;;
73563;SDS011;61834;50.196;6.454;2023-03-11T05:59:07;12.30;;;5.90;;
73563;SDS011;61834;50.196;6.454;2023-03-11T06:01:34;9.95;;;6.07;;
73563;SDS011;61834;50.196;6.454;2023-03-11T06:04:00;13.00;;;5.93;;
73563;SDS011;61834;50.196;6.454;2023-03-11T06:06:26;18.63;;;5.95;;
73563;SDS011;61834;50.196;6.454;2023-03-11T06:08:52;20.92;;;6.25;;
73563;SDS011;61834;50.196;6.454;2023-03-11T06:11:20;17.92;;;6.65;;
73563;SDS011;61834;50.196;6.454;2023-03-11T06:13:47;12.90;;;6.32;;
73563;SDS011;61834;50.196;6.454;2023-03-11T06:16:20;13.25;;;6.65;;
73563;SDS011;61834;50.196;6.454;2023-03-11T06:18:46;10.65;;;5.57;;
73563;SDS011;61834;50.196;6.454;2023-03-11T06:21:14;11.57;;;5.22;;
73563;SDS011;61834;50.196;6.454;2023-03-11T06:23:42;8.60;;;5.28;;
73563;SDS011;61834;50.196;6.454;2023-03-11T06:26:09;12.55;;;6.03;;
73563;SDS011;61834;50.196;6.454;2023-03-11T06:28:40;9.27;;;4.75;;
73563;SDS011;61834;50.196;6.454;2023-03-11T06:31:07;10.07;;;4.40;;
73563;SDS011;61834;50.196;6.454;2023-03-11T06:33:38;10.40;;;4.97;;
73563;SDS011;61834;50.196;6.454;2023-03-11T06:36:04;8.82;;;5.30;;
73563;SDS011;61834;50.196;6.454;2023-03-11T06:38:31;9.90;;;4.70;;
73563;SDS011;61834;50.196;6.454;2023-03-11T06:41:01;25.50;;;8.45;;
73563;SDS011;61834;50.196;6.454;2023-03-11T06:43:29;14.02;;;6.30;;
73563;SDS011;61834;50.196;6.454;2023-03-11T06:45:56;21.70;;;8.88;;
73563;SDS011;61834;50.196;6.454;2023-03-11T06:48:23;19.02;;;9.88;;
73563;SDS011;61834;50.196;6.454;2023-03-11T06:50:57;15.90;;;8.02;;
73563;SDS011;61834;50.196;6.454;2023-03-11T06:53:26;13.07;;;7.10;;
73563;SDS011;61834;50.196;6.454;2023-03-11T06:55:56;16.58;;;7.97;;
73563;SDS011;61834;50.196;6.454;2023-03-11T06:58:24;23.70;;;9.18;;
73563;SDS011;61834;50.196;6.454;2023-03-11T07:00:50;21.75;;;9.13;;
73563;SDS011;61834;50.196;6.454;2023-03-11T07:03:16;24.55;;;8.43;;
73563;SDS011;61834;50.196;6.454;2023-03-11T07:05:43;17.13;;;8.32;;
73563;SDS011;61834;50.196;6.454;2023-03-11T07:08:10;23.27;;;9.48;;
73563;SDS011;61834;50.196;6.454;2023-03-11T07:10:35;12.35;;;7.13;;
73563;SDS011;61834;50.196;6.454;2023-03-11T07:13:01;23.95;;;7.15;;
73563;SDS011;61834;50.196;6.454;2023-03-11T07:15:26;17.77;;;6.53;;
73563;SDS011;61834;50.196;6.454;2023-03-11T07:17:52;13.95;;;6.70;;
73563;SDS011;61834;50.196;6.454;2023-03-11T07:20:18;17.17;;;7.55;;
73563;SDS011;61834;50.196;6.454;2023-03-11T07:22:44;16.38;;;6.95;;
73563;SDS011;61834;50.196;6.454;2023-03-11T07:25:09;13.10;;;5.90;;
73563;SDS011;61834;50.196;6.454;2023-03-11T07:27:34;14.90;;;6.28;;
73563;SDS011;61834;50.196;6.454;2023-03-11T07:30:00;14.32;;;6.45;;
73563;SDS011;61834;50.196;6.454;2023-03-11T07:32:26;10.57;;;5.85;;
73563;SDS011;61834;50.196;6.454;2023-03-11T07:34:52;11.45;;;6.45;;
73563;SDS011;61834;50.196;6.454;2023-03-11T07:37:17;18.08;;;6.93;;
73563;SDS011;61834;50.196;6.454;2023-03-11T07:39:42;13.70;;;6.65;;
73563;SDS011;61834;50.196;6.454;2023-03-11T07:42:08;15.82;;;6.90;;
73563;SDS011;61834;50.196;6.454;2023-03-11T07:44:34;15.35;;;6.68;;
73563;SDS011;61834;50.196;6.454;2023-03-11T07:47:01;11.88;;;6.35;;
73563;SDS011;61834;50.196;6.454;2023-03-11T07:49:27;17.33;;;6.95;;
73563;SDS011;61834;50.196;6.454;2023-03-11T07:51:53;16.15;;;6.63;;
73563;SDS011;61834;50.196;6.454;2023-03-11T07:54:18;18.27;;;6.70;;
73563;SDS011;61834;50.196;6.454;2023-03-11T07:56:44;19.27;;;6.47;;
73563;SDS011;61834;50.196;6.454;2023-03-11T07:59:09;16.75;;;6.90;;
73563;SDS011;61834;50.196;6.454;2023-03-11T08:01:35;21.90;;;6.72;;
73563;SDS011;61834;50.196;6.454;2023-03-11T08:04:01;14.63;;;6.40;;
73563;SDS011;61834;50.196;6.454;2023-03-11T08:06:29;13.05;;;5.90;;
73563;SDS011;61834;50.196;6.454;2023-03-11T08:08:56;15.43;;;6.20;;
73563;SDS011;61834;50.196;6.454;2023-03-11T08:11:23;17.55;;;6.60;;
73563;SDS011;61834;50.196;6.454;2023-03-11T08:13:50;17.55;;;6.93;;
73563;SDS011;61834;50.196;6.454;2023-03-11T08:16:17;14.48;;;6.55;;
73563;SDS011;61834;50.196;6.454;2023-03-11T08:18:45;14.65;;;5.82;;
73563;SDS011;61834;50.196;6.454;2023-03-11T08:21:12;17.00;;;6.20;;
73563;SDS011;61834;50.196;6.454;2023-03-11T08:23:39;14.05;;;6.15;;
73563;SDS011;61834;50.196;6.454;2023-03-11T08:26:06;13.80;;;6.78;;
73563;SDS011;61834;50.196;6.454;2023-03-11T08:28:33;16.23;;;5.60;;
73563;SDS011;61834;50.196;6.454;2023-03-11T08:30:59;13.55;;;5.35;;
73563;SDS011;61834;50.196;6.454;2023-03-11T08:33:25;11.88;;;5.43;;
73563;SDS011;61834;50.196;6.454;2023-03-11T08:35:50;16.65;;;5.82;;
73563;SDS011;61834;50.196;6.454;2023-03-11T08:38:16;14.73;;;5.50;;
73563;SDS011;61834;50.196;6.454;2023-03-11T08:40:41;11.85;;;5.88;;
73563;SDS011;61834;50.196;6.454;2023-03-11T08:43:07;10.88;;;5.82;;
73563;SDS011;61834;50.196;6.454;2023-03-11T08:45:38;10.18;;;5.70;;
73563;SDS011;61834;50.196;6.454;2023-03-11T08:48:04;16.75;;;5.78;;
73563;SDS011;61834;50.196;6.454;2023-03-11T08:50:29;11.65;;;4.55;;
73563;SDS011;61834;50.196;6.454;2023-03-11T08:52:55;9.73;;;4.25;;
73563;SDS011;61834;50.196;6.454;2023-03-11T08:55:24;10.80;;;4.75;;
73563;SDS011;61834;50.196;6.454;2023-03-11T08:57:52;9.25;;;4.80;;
73563;SDS011;61834;50.196;6.454;2023-03-11T09:00:18;10.82;;;5.22;;
73563;SDS011;61834;50.196;6.454;2023-03-11T09:02:44;14.70;;;3.83;;
73563;SDS011;61834;50.196;6.454;2023-03-11T09:05:09;12.55;;;4.03;;
73563;SDS011;61834;50.196;6.454;2023-03-11T09:07:35;12.50;;;3.75;;
73563;SDS011;61834;50.196;6.454;2023-03-11T09:10:01;11.77;;;4.30;;
73563;SDS011;61834;50.196;6.454;2023-03-11T09:12:27;10.32;;;4.10;;
73563;SDS011;61834;50.196;6.454;2023-03-11T09:14:53;8.27;;;4.05;;
73563;SDS011;61834;50.196;6.454;2023-03-11T09:17:20;14.32;;;4.05;;
73563;SDS011;61834;50.196;6.454;2023-03-11T09:19:46;7.00;;;1.70;;
73563;SDS011;61834;50.196;6.454;2023-03-11T09:22:12;7.45;;;1.65;;
73563;SDS011;61834;50.196;6.454;2023-03-11T09:24:37;8.43;;;1.58;;
73563;SDS011;61834;50.196;6.454;2023-03-11T09:27:02;5.18;;;1.73;;
73563;SDS011;61834;50.196;6.454;2023-03-11T09:29:28;5.15;;;1.23;;
73563;SDS011;61834;50.196;6.454;2023-03-11T09:31:53;5.05;;;1.70;;
73563;SDS011;61834;50.196;6.454;2023-03-11T09:34:19;5.80;;;1.65;;
73563;SDS011;61834;50.196;6.454;2023-03-11T09:36:44;5.97;;;1.52;;
73563;SDS011;61834;50.196;6.454;2023-03-11T09:39:11;6.45;;;1.45;;
73563;SDS011;61834;50.196;6.454;2023-03-11T09:41:53;6.30;;;1.50;;
73563;SDS011;61834;50.196;6.454;2023-03-11T09:52:32;5.13;;;1.30;;
73563;SDS011;61834;50.196;6.454;2023-03-11T10:01:11;5.68;;;1.20;;
73563;SDS011;61834;50.196;6.454;2023-03-11T10:03:51;7.05;;;1.27;;
73563;SDS011;61834;50.196;6.454;2023-03-11T10:14:09;5.03;;;0.93;;
73563;SDS011;61834;50.196;6.454;2023-03-11T10:16:55;5.15;;;1.10;;
73563;SDS011;61834;50.196;6.454;2023-03-11T10:25:13;6.05;;;1.20;;
73563;SDS011;61834;50.196;6.454;2023-03-11T10:35:41;4.25;;;1.30;;
73563;SDS011;61834;50.196;6.454;2023-03-11T10:38:13;5.82;;;1.60;;
73563;SDS011;61834;50.196;6.454;2023-03-11T10:40:44;5.60;;;1.13;;
73563;SDS011;61834;50.196;6.454;2023-03-11T10:43:17;3.47;;;0.90;;
73563;SDS011;61834;50.196;6.454;2023-03-11T10:45:48;4.47;;;1.45;;
73563;SDS011;61834;50.196;6.454;2023-03-11T10:48:16;3.67;;;0.88;;
73563;SDS011;61834;50.196;6.454;2023-03-11T10:50:48;3.13;;;0.88;;
73563;SDS011;61834;50.196;6.454;2023-03-11T10:53:20;4.68;;;0.80;;
73563;SDS011;61834;50.196;6.454;2023-03-11T10:55:47;6.38;;;0.90;;
73563;SDS011;61834;50.196;6.454;2023-03-11T10:58:16;9.35;;;1.30;;
73563;SDS011;61834;50.196;6.454;2023-03-11T11:00:44;5.90;;;1.63;;
73563;SDS011;61834;50.196;6.454;2023-03-11T11:03:15;6.70;;;1.48;;
73563;SDS011;61834;50.196;6.454;2023-03-11T11:05:48;3.38;;;1.30;;
73563;SDS011;61834;50.196;6.454;2023-03-11T11:08:21;16.27;;;1.70;;
73563;SDS011;61834;50.196;6.454;2023-03-11T11:10:48;5.50;;;0.82;;
73563;SDS011;61834;50.196;6.454;2023-03-11T11:13:20;6.47;;;1.10;;
73563;SDS011;61834;50.196;6.454;2023-03-11T11:15:53;9.60;;;1.70;;
73563;SDS011;61834;50.196;6.454;2023-03-11T11:20:55;7.25;;;1.42;;
73563;SDS011;61834;50.196;6.454;2023-03-11T11:23:35;4.70;;;1.20;;
73563;SDS011;61834;50.196;6.454;2023-03-11T11:26:05;5.82;;;1.52;;
73563;SDS011;61834;50.196;6.454;2023-03-11T11:28:38;10.27;;;1.00;;
73563;SDS011;61834;50.196;6.454;2023-03-11T11:31:04;5.50;;;1.10;;
73563;SDS011;61834;50.196;6.454;2023-03-11T11:33:55;10.80;;;1.90;;
73563;SDS011;61834;50.196;6.454;2023-03-11T11:36:22;17.38;;;1.25;;
73563;SDS011;61834;50.196;6.454;2023-03-11T11:38:53;7.32;;;2.42;;
73563;SDS011;61834;50.196;6.454;2023-03-11T11:41:21;5.95;;;0.85;;
73563;SDS011;61834;50.196;6.454;2023-03-11T11:43:50;6.70;;;1.60;;
73563;SDS011;61834;50.196;6.454;2023-03-11T11:46:19;6.80;;;1.33;;
73563;SDS011;61834;50.196;6.454;2023-03-11T11:48:51;5.45;;;0.95;;
73563;SDS011;61834;50.196;6.454;2023-03-11T11:51:29;6.32;;;1.33;;
73563;SDS011;61834;50.196;6.454;2023-03-11T11:56:26;7.93;;;1.05;;
73563;SDS011;61834;50.196;6.454;2023-03-11T11:58:52;5.65;;;1.13;;
73563;SDS011;61834;50.196;6.454;2023-03-11T12:12:32;5.78;;;1.05;;
73563;SDS011;61834;50.196;6.454;2023-03-11T12:17:45;3.10;;;1.02;;
73563;SDS011;61834;50.196;6.454;2023-03-11T12:20:21;6.65;;;1.00;;
73563;SDS011;61834;50.196;6.454;2023-03-11T12:23:19;10.40;;;1.42;;
73563;SDS011;61834;50.196;6.454;2023-03-11T12:26:12;5.72;;;1.00;;
73563;SDS011;61834;50.196;6.454;2023-03-11T12:31:10;6.32;;;0.98;;
73563;SDS011;61834;50.196;6.454;2023-03-11T12:33:39;8.65;;;1.08;;
73563;SDS011;61834;50.196;6.454;2023-03-11T12:36:16;5.72;;;1.35;;
73563;SDS011;61834;50.196;6.454;2023-03-11T12:38:47;4.65;;;1.48;;
73563;SDS011;61834;50.196;6.454;2023-03-11T12:46:08;6.93;;;1.05;;
73563;SDS011;61834;50.196;6.454;2023-03-11T12:48:40;4.95;;;1.10;;
73563;SDS011;61834;50.196;6.454;2023-03-11T12:53:51;3.78;;;1.45;;
73563;SDS011;61834;50.196;6.454;2023-03-11T12:56:24;3.60;;;0.98;;
73563;SDS011;61834;50.196;6.454;2023-03-11T13:04:38;9.32;;;1.30;;
73563;SDS011;61834;50.196;6.454;2023-03-11T13:10:14;3.42;;;1.15;;
73563;SDS011;61834;50.196;6.454;2023-03-11T13:12:43;5.75;;;1.20;;
73563;SDS011;61834;50.196;6.454;2023-03-11T13:33:56;6.80;;;2.05;;
73563;SDS011;61834;50.196;6.454;2023-03-11T13:37:28;10.88;;;1.60;;
73563;SDS011;61834;50.196;6.454;2023-03-11T13:44:52;4.65;;;1.23;;
73563;SDS011;61834;50.196;6.454;2023-03-11T13:47:17;8.52;;;1.70;;
73563;SDS011;61834;50.196;6.454;2023-03-11T13:50:04;10.80;;;1.67;;
73563;SDS011;61834;50.196;6.454;2023-03-11T13:52:43;8.30;;;1.38;;
73563;SDS011;61834;50.196;6.454;2023-03-11T13:55:19;8.52;;;1.35;;
73563;SDS011;61834;50.196;6.454;2023-03-11T13:57:48;5.00;;;1.55;;
73563;SDS011;61834;50.196;6.454;2023-03-11T14:00:20;5.72;;;1.40;;
73563;SDS011;61834;50.196;6.454;2023-03-11T14:02:51;4.68;;;1.70;;
73563;SDS011;61834;50.196;6.454;2023-03-11T14:05:23;7.53;;;1.75;;
73563;SDS011;61834;50.196;6.454;2023-03-11T14:08:10;11.75;;;1.42;;
73563;SDS011;61834;50.196;6.454;2023-03-11T14:10:36;4.90;;;1.73;;
73563;SDS011;61834;50.196;6.454;2023-03-11T14:13:19;6.53;;;1.75;;
73563;SDS011;61834;50.196;6.454;2023-03-11T14:15:47;7.30;;;2.00;;
73563;SDS011;61834;50.196;6.454;2023-03-11T14:18:38;11.90;;;2.15;;
73563;SDS011;61834;50.196;6.454;2023-03-11T14:21:10;5.03;;;1.45;;
73563;SDS011;61834;50.196;6.454;2023-03-11T14:23:40;5.47;;;1.45;;
73563;SDS011;61834;50.196;6.454;2023-03-11T14:26:23;8.07;;;1.85;;
73563;SDS011;61834;50.196;6.454;2023-03-11T14:28:53;8.80;;;2.13;;
73563;SDS011;61834;50.196;6.454;2023-03-11T14:31:34;8.65;;;1.80;;
73563;SDS011;61834;50.196;6.454;2023-03-11T14:36:44;12.05;;;2.42;;
73563;SDS011;61834;50.196;6.454;2023-03-11T14:41:49;10.57;;;1.80;;
73563;SDS011;61834;50.196;6.454;2023-03-11T14:44:17;5.32;;;1.80;;
73563;SDS011;61834;50.196;6.454;2023-03-11T14:46:43;5.55;;;1.55;;
73563;SDS011;61834;50.196;6.454;2023-03-11T14:49:12;8.27;;;1.70;;
73563;SDS011;61834;50.196;6.454;2023-03-11T14:51:43;6.68;;;1.83;;
73563;SDS011;61834;50.196;6.454;2023-03-11T14:54:16;7.40;;;2.03;;
73563;SDS011;61834;50.196;6.454;2023-03-11T14:56:47;5.60;;;1.52;;
73563;SDS011;61834;50.196;6.454;2023-03-11T14:59:28;8.98;;;1.52;;
73563;SDS011;61834;50.196;6.454;2023-03-11T15:02:02;4.63;;;1.92;;
73563;SDS011;61834;50.196;6.454;2023-03-11T15:04:44;6.97;;;1.55;;
73563;SDS011;61834;50.196;6.454;2023-03-11T15:07:10;5.45;;;1.95;;
73563;SDS011;61834;50.196;6.454;2023-03-11T15:09:38;4.05;;;1.35;;
73563;SDS011;61834;50.196;6.454;2023-03-11T15:12:05;4.38;;;1.30;;
73563;SDS011;61834;50.196;6.454;2023-03-11T15:14:35;6.80;;;1.90;;
73563;SDS011;61834;50.196;6.454;2023-03-11T15:17:17;7.25;;;1.40;;
73563;SDS011;61834;50.196;6.454;2023-03-11T15:19:56;3.88;;;1.27;;
73563;SDS011;61834;50.196;6.454;2023-03-11T15:24:59;7.80;;;1.95;;
73563;SDS011;61834;50.196;6.454;2023-03-11T15:27:36;4.32;;;1.75;;
73563;SDS011;61834;50.196;6.454;2023-03-11T15:30:04;8.90;;;1.60;;
73563;SDS011;61834;50.196;6.454;2023-03-11T15:32:43;9.20;;;1.60;;
73563;SDS011;61834;50.196;6.454;2023-03-11T15:37:38;8.98;;;2.35;;
73563;SDS011;61834;50.196;6.454;2023-03-11T15:42:48;6.32;;;2.00;;
73563;SDS011;61834;50.196;6.454;2023-03-11T15:45:31;12.02;;;2.08;;
73563;SDS011;61834;50.196;6.454;2023-03-11T15:47:56;10.80;;;1.88;;
73563;SDS011;61834;50.196;6.454;2023-03-11T15:50:23;3.58;;;1.25;;
73563;SDS011;61834;50.196;6.454;2023-03-11T15:52:52;14.20;;;5.78;;
73563;SDS011;61834;50.196;6.454;2023-03-11T15:55:20;17.52;;;5.45;;
73563;SDS011;61834;50.196;6.454;2023-03-11T15:57:46;7.90;;;1.90;;
73563;SDS011;61834;50.196;6.454;2023-03-11T16:00:13;4.85;;;1.95;;
73563;SDS011;61834;50.196;6.454;2023-03-11T16:02:44;9.50;;;2.30;;
73563;SDS011;61834;50.196;6.454;2023-03-11T16:05:14;3.83;;;1.65;;
73563;SDS011;61834;50.196;6.454;2023-03-11T16:07:42;26.35;;;11.02;;
73563;SDS011;61834;50.196;6.454;2023-03-11T16:10:08;10.50;;;3.10;;
73563;SDS011;61834;50.196;6.454;2023-03-11T16:12:35;11.40;;;2.80;;
73563;SDS011;61834;50.196;6.454;2023-03-11T16:15:00;9.95;;;1.70;;
73563;SDS011;61834;50.196;6.454;2023-03-11T16:17:26;11.88;;;2.65;;
73563;SDS011;61834;50.196;6.454;2023-03-11T16:19:51;12.13;;;1.83;;
73563;SDS011;61834;50.196;6.454;2023-03-11T16:22:20;12.07;;;3.53;;
73563;SDS011;61834;50.196;6.454;2023-03-11T16:24:53;3.13;;;1.00;;
73563;SDS011;61834;50.196;6.454;2023-03-11T16:27:18;17.98;;;2.65;;
73563;SDS011;61834;50.196;6.454;2023-03-11T16:29:44;8.07;;;2.92;;
73563;SDS011;61834;50.196;6.454;2023-03-11T16:32:10;6.35;;;2.15;;
73563;SDS011;61834;50.196;6.454;2023-03-11T16:34:37;12.10;;;3.05;;
73563;SDS011;61834;50.196;6.454;2023-03-11T16:37:03;8.07;;;1.42;;
73563;SDS011;61834;50.196;6.454;2023-03-11T16:39:29;8.55;;;2.97;;
73563;SDS011;61834;50.196;6.454;2023-03-11T16:41:55;7.00;;;2.10;;